createdAt,value
2022-08-12T00:00:24.036Z,2.47
2022-08-12T00:03:15.018Z,2.35
2022-08-12T00:06:07.330Z,1.92
2022-08-12T00:08:54.630Z,2.55
2022-08-12T00:11:42.896Z,2.22
2022-08-12T00:14:29.263Z,2.53
2022-08-12T00:17:17.245Z,2.50
2022-08-12T00:20:03.933Z,2.17
2022-08-12T00:22:59.839Z,2.17
2022-08-12T00:26:20.929Z,2.30
2022-08-12T00:29:05.670Z,2.00
2022-08-12T00:31:52.430Z,2.30
2022-08-12T00:34:38.383Z,2.00
2022-08-12T00:37:25.322Z,2.17
2022-08-12T00:40:14.169Z,2.10
2022-08-12T00:42:46.316Z,2.35
2022-08-12T00:45:15.894Z,2.22
2022-08-12T00:47:57.401Z,2.40
2022-08-12T00:50:28.964Z,2.33
2022-08-12T00:53:07.355Z,1.77
2022-08-12T00:55:40.726Z,2.10
2022-08-12T00:58:10.465Z,2.30
2022-08-12T01:00:42.370Z,2.13
2022-08-12T01:03:21.344Z,2.55
2022-08-12T01:06:10.129Z,2.30
2022-08-12T01:08:57.810Z,1.90
2022-08-12T01:11:29.917Z,2.10
2022-08-12T01:13:59.353Z,1.92
2022-08-12T01:16:29.470Z,1.73
2022-08-12T01:19:00.894Z,2.10
2022-08-12T01:21:44.011Z,2.20
2022-08-12T01:24:36.634Z,2.10
2022-08-12T01:27:07.796Z,2.58
2022-08-12T01:29:38.499Z,2.55
2022-08-12T01:32:08.726Z,2.50
2022-08-12T01:34:38.825Z,2.67
2022-08-12T01:37:10.190Z,2.70
2022-08-12T01:40:36.991Z,2.58
2022-08-12T01:42:43.264Z,2.55
2022-08-12T01:45:14.288Z,2.53
2022-08-12T01:48:05.632Z,2.15
2022-08-12T01:50:46.609Z,2.40
2022-08-12T01:53:16.034Z,2.25
2022-08-12T01:55:46.320Z,2.33
2022-08-12T01:58:53.947Z,2.40
2022-08-12T02:01:25.265Z,2.30
2022-08-12T02:04:23.185Z,2.15
2022-08-12T02:07:26.860Z,2.53
2022-08-12T02:10:50.379Z,2.00
2022-08-12T02:13:33.139Z,2.78
2022-08-12T02:16:35.014Z,2.60
2022-08-12T02:19:22.410Z,2.15
2022-08-12T02:22:09.750Z,2.20
2022-08-12T02:24:39.007Z,2.50
2022-08-12T02:27:10.606Z,2.45
2022-08-12T02:29:40.605Z,2.58
2022-08-12T02:32:10.474Z,2.47
2022-08-12T02:34:39.726Z,2.72
2022-08-12T02:37:09.668Z,2.60
2022-08-12T02:39:41.745Z,4.03
2022-08-12T02:42:12.846Z,2.72
2022-08-12T02:44:50.925Z,2.45
2022-08-12T02:47:58.851Z,2.57
2022-08-12T02:50:15.082Z,2.55
2022-08-12T02:52:45.434Z,3.38
2022-08-12T02:55:34.103Z,2.67
2022-08-12T02:58:07.119Z,2.42
2022-08-12T03:00:39.773Z,2.28
2022-08-12T03:03:22.540Z,3.08
2022-08-12T03:05:55.312Z,3.20
2022-08-12T03:08:32.633Z,3.08
2022-08-12T03:11:12.184Z,2.45
2022-08-12T03:13:47.569Z,2.92
2022-08-12T03:16:16.162Z,2.47
2022-08-12T03:18:46.259Z,2.80
2022-08-12T03:21:17.193Z,2.78
2022-08-12T03:24:08.328Z,3.08
2022-08-12T03:26:37.871Z,2.90
2022-08-12T03:29:07.289Z,2.83
2022-08-12T03:31:37.128Z,2.40
2022-08-12T03:34:09.521Z,3.17
2022-08-12T03:36:39.995Z,3.15
2022-08-12T03:39:35.956Z,2.95
2022-08-12T03:42:06.116Z,2.63
2022-08-12T03:44:56.600Z,3.05
2022-08-12T03:48:18.614Z,2.63
2022-08-12T03:51:05.629Z,3.35
2022-08-12T03:53:52.201Z,3.13
2022-08-12T03:56:39.574Z,3.35
2022-08-12T03:59:26.977Z,3.00
2022-08-12T04:01:58.491Z,3.70
2022-08-12T04:04:34.695Z,3.15
2022-08-12T04:07:09.811Z,3.78
2022-08-12T04:09:42.732Z,3.10
2022-08-12T04:12:32.650Z,3.22
2022-08-12T04:15:03.751Z,2.97
2022-08-12T04:18:07.505Z,3.40
2022-08-12T04:20:42.942Z,3.65
2022-08-12T04:23:16.679Z,3.55
2022-08-12T04:25:47.345Z,2.72
2022-08-12T04:28:17.433Z,3.45
2022-08-12T04:30:56.553Z,3.55
2022-08-12T04:33:32.492Z,3.10
2022-08-12T04:36:05.371Z,2.83
2022-08-12T04:38:40.074Z,2.85
2022-08-12T04:41:11.597Z,3.72
2022-08-12T04:43:54.605Z,3.30
2022-08-12T04:46:34.942Z,3.80
2022-08-12T04:49:03.765Z,3.28
2022-08-12T04:51:35.221Z,3.15
2022-08-12T04:54:04.645Z,3.38
2022-08-12T04:56:39.221Z,3.25
2022-08-12T04:59:08.974Z,3.22
2022-08-12T05:01:40.163Z,3.20
2022-08-12T05:04:12.719Z,3.53
2022-08-12T05:06:47.680Z,2.83
2022-08-12T05:09:17.027Z,3.38
2022-08-12T05:11:52.039Z,3.25
2022-08-12T05:14:24.050Z,2.75
2022-08-12T05:16:56.204Z,2.88
2022-08-12T05:19:26.729Z,3.00
2022-08-12T05:21:55.459Z,3.05
2022-08-12T05:24:29.568Z,3.25
2022-08-12T05:26:57.932Z,3.22
2022-08-12T05:30:06.608Z,2.45
2022-08-12T05:32:21.453Z,2.78
2022-08-12T05:34:50.837Z,3.05
2022-08-12T05:37:20.009Z,2.80
2022-08-12T05:39:49.174Z,2.40
2022-08-12T05:42:18.181Z,2.20
2022-08-12T05:45:00.123Z,2.63
2022-08-12T05:47:36.593Z,2.55
2022-08-12T05:50:19.952Z,2.47
2022-08-12T05:52:53.035Z,2.40
2022-08-12T05:55:25.891Z,2.22
2022-08-12T05:57:57.824Z,2.65
2022-08-12T06:00:29.094Z,2.60
2022-08-12T06:03:09.868Z,2.28
2022-08-12T06:05:54.291Z,2.42
2022-08-12T06:08:25.063Z,3.00
2022-08-12T06:10:57.167Z,2.65
2022-08-12T06:13:54.291Z,2.50
2022-08-12T06:16:21.967Z,2.60
2022-08-12T06:18:52.264Z,2.63
2022-08-12T06:21:23.403Z,2.22
2022-08-12T06:23:52.210Z,2.03
2022-08-12T06:26:22.160Z,2.67
2022-08-12T06:28:54.321Z,2.00
2022-08-12T06:31:27.025Z,2.65
2022-08-12T06:34:52.925Z,2.28
2022-08-12T06:36:48.008Z,2.10
2022-08-12T06:39:18.045Z,2.35
2022-08-12T06:42:42.091Z,1.67
2022-08-12T06:44:55.626Z,1.90
2022-08-12T06:47:24.105Z,2.65
2022-08-12T06:49:54.394Z,1.80
2022-08-12T06:52:25.258Z,1.98
2022-08-12T06:54:55.717Z,3.05
2022-08-12T06:58:06.025Z,1.70
2022-08-12T07:00:31.246Z,1.67
2022-08-12T07:03:23.124Z,1.50
2022-08-12T07:05:52.583Z,1.50
2022-08-12T07:08:21.149Z,1.30
2022-08-12T07:10:59.274Z,1.63
2022-08-12T07:14:11.424Z,1.30
2022-08-12T07:16:48.654Z,1.50
2022-08-12T07:19:18.047Z,1.38
2022-08-12T07:21:59.789Z,1.10
2022-08-12T07:24:34.497Z,1.23
2022-08-12T07:27:12.209Z,1.20
2022-08-12T07:29:58.182Z,1.27
2022-08-12T07:32:47.662Z,2.22
2022-08-12T07:35:17.512Z,1.42
2022-08-12T07:37:47.206Z,1.25
2022-08-12T07:40:15.811Z,1.10
2022-08-12T07:42:57.173Z,1.40
2022-08-12T07:45:35.365Z,1.13
2022-08-12T07:48:07.141Z,1.35
2022-08-12T07:50:41.778Z,1.10
2022-08-12T07:53:17.346Z,1.30
2022-08-12T07:55:47.689Z,1.20
2022-08-12T07:58:18.517Z,1.40
2022-08-12T08:00:49.819Z,1.10
2022-08-12T08:03:25.808Z,1.25
2022-08-12T08:06:18.981Z,1.30
2022-08-12T08:08:57.351Z,1.17
2022-08-12T08:11:49.622Z,1.42
2022-08-12T08:14:18.283Z,0.70
2022-08-12T08:16:49.585Z,1.10
2022-08-12T08:19:29.247Z,1.10
2022-08-12T08:21:58.715Z,2.08
2022-08-12T08:24:34.149Z,1.38
2022-08-12T08:27:04.910Z,1.42
2022-08-12T08:29:35.366Z,1.25
2022-08-12T08:32:21.799Z,1.25
2022-08-12T08:34:59.756Z,1.10
2022-08-12T08:37:46.941Z,1.00
2022-08-12T08:40:46.570Z,1.20
2022-08-12T08:43:24.430Z,1.00
2022-08-12T08:46:14.397Z,1.00
2022-08-12T08:48:42.875Z,1.08
2022-08-12T08:51:11.553Z,1.23
2022-08-12T08:53:41.393Z,0.80
2022-08-12T08:56:13.194Z,1.83
2022-08-12T08:58:50.329Z,1.30
2022-08-12T09:01:37.517Z,1.10
2022-08-12T09:05:12.942Z,1.00
2022-08-12T09:07:51.287Z,1.17
2022-08-12T09:10:32.752Z,1.92
2022-08-12T09:16:25.094Z,1.30
2022-08-12T09:19:07.805Z,1.48
2022-08-12T09:21:57.280Z,1.30
2022-08-12T09:24:30.769Z,0.90
2022-08-12T09:27:01.329Z,1.20
2022-08-12T09:30:08.573Z,1.27
2022-08-12T09:33:05.178Z,1.30
2022-08-12T09:35:28.253Z,1.05
2022-08-12T09:38:20.914Z,1.13
2022-08-12T09:42:08.883Z,1.42
2022-08-12T09:44:05.908Z,1.58
2022-08-12T09:46:36.024Z,1.15
2022-08-12T09:49:13.270Z,1.73
2022-08-12T09:51:49.035Z,1.20
2022-08-12T09:54:32.907Z,0.90
2022-08-12T09:58:47.065Z,1.40
2022-08-12T10:00:15.873Z,1.30
2022-08-12T10:03:07.112Z,1.20
2022-08-12T10:06:26.295Z,1.35
2022-08-12T10:08:53.636Z,1.42
2022-08-12T10:12:11.753Z,0.98
2022-08-12T10:14:50.380Z,1.58
2022-08-12T10:17:23.478Z,1.50
2022-08-12T10:19:53.046Z,1.60
2022-08-12T10:22:36.587Z,1.13
2022-08-12T10:26:34.685Z,1.15
2022-08-12T10:29:02.568Z,1.30
2022-08-12T10:31:59.486Z,2.28
2022-08-12T10:34:53.111Z,1.40
2022-08-12T10:38:34.202Z,1.30
2022-08-12T10:41:07.093Z,1.48
2022-08-12T10:44:02.655Z,1.25
2022-08-12T10:46:45.882Z,1.17
2022-08-12T10:50:03.226Z,1.40
2022-08-12T10:52:34.682Z,1.58
2022-08-12T10:55:13.116Z,1.15
2022-08-12T10:58:14.859Z,0.75
2022-08-12T11:00:45.162Z,2.20
2022-08-12T11:04:36.029Z,1.08
2022-08-12T11:07:09.388Z,0.95
2022-08-12T11:09:41.601Z,1.30
2022-08-12T11:12:55.162Z,1.33
2022-08-12T11:15:19.117Z,1.00
2022-08-12T11:18:03.259Z,1.20
2022-08-12T11:20:33.936Z,1.20
2022-08-12T11:23:24.579Z,1.02
2022-08-12T11:26:05.021Z,1.20
2022-08-12T11:28:37.467Z,1.13
2022-08-12T11:31:12.283Z,1.20
2022-08-12T11:34:06.372Z,1.10
2022-08-12T11:36:56.066Z,1.20
2022-08-12T11:40:03.452Z,1.30
2022-08-12T11:42:33.613Z,1.20
2022-08-12T11:45:19.827Z,1.02
2022-08-12T11:48:02.992Z,1.00
2022-08-12T11:50:46.079Z,1.30
2022-08-12T11:53:58.341Z,1.50
2022-08-12T11:56:25.554Z,1.30
2022-08-12T12:02:05.060Z,1.30
2022-08-12T12:04:36.210Z,0.95
2022-08-12T12:07:06.971Z,1.23
2022-08-12T12:09:53.105Z,1.40
2022-08-12T12:12:34.323Z,1.30
2022-08-12T12:15:25.089Z,1.08
2022-08-12T12:18:30.941Z,1.10
2022-08-12T12:21:04.013Z,1.13
2022-08-12T12:23:36.361Z,1.17
2022-08-12T12:26:08.377Z,0.90
2022-08-12T12:28:54.461Z,1.30
2022-08-12T12:34:30.611Z,1.55
2022-08-12T12:37:02.201Z,1.10
2022-08-12T12:39:50.219Z,0.90
2022-08-12T12:42:45.446Z,0.82
2022-08-12T12:45:46.374Z,1.30
2022-08-12T12:48:34.281Z,1.00
2022-08-12T12:51:48.781Z,0.85
2022-08-12T12:54:29.945Z,0.90
2022-08-12T12:57:17.645Z,0.98
2022-08-12T13:00:24.846Z,1.05
2022-08-12T13:03:19.316Z,1.00
2022-08-12T13:05:53.816Z,0.98
2022-08-12T13:08:28.258Z,1.70
2022-08-12T13:11:05.160Z,0.95
2022-08-12T13:14:09.715Z,1.08
2022-08-12T13:16:29.287Z,0.90
2022-08-12T13:18:58.530Z,1.10
2022-08-12T13:21:32.755Z,1.10
2022-08-12T13:24:10.389Z,1.20
2022-08-12T13:26:45.799Z,0.95
2022-08-12T13:29:15.322Z,0.82
2022-08-12T13:31:46.546Z,1.65
2022-08-12T13:34:39.412Z,0.70
2022-08-12T13:37:11.284Z,0.80
2022-08-12T13:39:40.829Z,1.00
2022-08-12T13:42:13.673Z,0.80
2022-08-12T13:44:46.308Z,1.00
2022-08-12T13:47:19.836Z,1.02
2022-08-12T13:49:53.861Z,0.77
2022-08-12T13:52:25.756Z,0.70
2022-08-12T13:54:56.668Z,0.90
2022-08-12T14:00:22.678Z,0.75
2022-08-12T14:03:21.812Z,0.80
2022-08-12T14:06:12.261Z,0.52
2022-08-12T14:08:45.027Z,0.80
2022-08-12T14:11:27.846Z,0.90
2022-08-12T14:14:04.301Z,0.90
2022-08-12T14:16:54.011Z,0.70
2022-08-12T14:19:27.107Z,0.95
2022-08-12T14:22:08.312Z,0.95
2022-08-12T14:24:41.327Z,0.93
2022-08-12T14:27:11.428Z,0.70
2022-08-12T14:30:06.253Z,0.75
2022-08-12T14:32:50.655Z,0.80
2022-08-12T14:35:21.611Z,1.33
2022-08-12T14:38:39.333Z,0.70
2022-08-12T14:41:10.288Z,1.20
2022-08-12T14:43:44.261Z,0.80
2022-08-12T14:46:28.794Z,0.93
2022-08-12T14:48:58.034Z,0.65
2022-08-12T14:52:42.632Z,0.98
2022-08-12T14:57:23.458Z,0.70
2022-08-12T15:00:10.544Z,2.90
2022-08-12T15:02:42.833Z,1.45
2022-08-12T15:05:12.051Z,1.30
2022-08-12T15:08:04.958Z,0.80
2022-08-12T15:10:39.064Z,0.70
2022-08-12T15:13:14.650Z,0.65
2022-08-12T15:15:56.292Z,1.05
2022-08-12T15:18:55.403Z,0.80
2022-08-12T15:22:38.922Z,0.77
2022-08-12T15:24:27.303Z,1.20
2022-08-12T15:26:58.396Z,0.95
2022-08-12T15:29:28.402Z,0.80
2022-08-12T15:31:59.788Z,0.68
2022-08-12T15:34:33.368Z,0.60
2022-08-12T15:37:04.730Z,0.95
2022-08-12T15:39:38.054Z,0.80
2022-08-12T15:42:24.672Z,0.90
2022-08-12T15:45:23.658Z,0.93
2022-08-12T15:48:16.824Z,0.80
2022-08-12T15:51:08.153Z,0.90
2022-08-12T15:54:30.902Z,0.75
2022-08-12T15:56:57.661Z,0.77
2022-08-12T15:59:51.559Z,0.75
2022-08-12T16:02:19.303Z,0.88
2022-08-12T16:04:50.320Z,0.50
2022-08-12T16:07:39.315Z,0.65
2022-08-12T16:10:30.954Z,0.70
2022-08-12T16:13:32.542Z,0.80
2022-08-12T16:16:24.278Z,0.60
2022-08-12T16:19:19.156Z,1.05
2022-08-12T16:22:22.294Z,0.68
2022-08-12T16:25:10.058Z,0.80
2022-08-12T16:27:58.552Z,1.00
2022-08-12T16:30:39.832Z,0.50
2022-08-12T16:33:35.698Z,0.45
2022-08-12T16:36:32.662Z,0.43
2022-08-12T16:39:16.968Z,0.60
2022-08-12T16:41:48.007Z,0.70
2022-08-12T16:44:19.466Z,0.50
2022-08-12T16:46:57.988Z,0.60
2022-08-12T16:49:29.754Z,0.57
2022-08-12T16:54:52.873Z,0.80
2022-08-12T16:57:42.100Z,0.63
2022-08-12T17:00:20.116Z,0.68
2022-08-12T17:03:12.689Z,0.73
2022-08-12T17:06:06.477Z,0.80
2022-08-12T17:08:49.788Z,0.80
2022-08-12T17:11:52.657Z,0.65
2022-08-12T17:14:53.094Z,0.90
2022-08-12T17:18:15.219Z,0.82
2022-08-12T17:21:07.098Z,1.55
2022-08-12T17:24:15.259Z,0.80
2022-08-12T17:27:16.089Z,0.52
2022-08-12T17:30:13.353Z,0.55
2022-08-12T17:33:17.201Z,0.70
2022-08-12T17:36:21.906Z,0.60
2022-08-12T17:39:26.626Z,0.50
2022-08-12T17:42:34.513Z,0.75
2022-08-12T17:45:17.845Z,0.73
2022-08-12T17:48:09.622Z,0.70
2022-08-12T17:50:52.502Z,0.70
2022-08-12T17:54:05.495Z,0.90
2022-08-12T17:56:39.744Z,0.60
2022-08-12T17:59:47.353Z,0.52
2022-08-12T18:02:30.014Z,1.00
2022-08-12T18:05:10.017Z,0.90
2022-08-12T18:07:57.858Z,0.60
2022-08-12T18:10:58.067Z,0.75
2022-08-12T18:13:42.453Z,0.80
2022-08-12T18:16:13.696Z,0.70
2022-08-12T18:18:57.185Z,0.60
2022-08-12T18:22:01.630Z,0.60
2022-08-12T18:24:22.438Z,0.50
2022-08-12T18:27:30.324Z,1.15
2022-08-12T18:30:04.597Z,0.57
2022-08-12T18:32:58.957Z,0.70
2022-08-12T18:35:47.703Z,0.85
2022-08-12T18:38:30.444Z,0.73
2022-08-12T18:41:23.369Z,0.80
2022-08-12T18:44:02.339Z,0.77
2022-08-12T18:46:46.917Z,0.63
2022-08-12T18:49:30.675Z,0.82
2022-08-12T18:52:08.109Z,0.63
2022-08-12T18:54:53.324Z,0.70
2022-08-12T18:58:06.825Z,0.70
2022-08-12T19:00:20.826Z,0.70
2022-08-12T19:03:05.597Z,0.90
2022-08-12T19:06:02.684Z,0.70
2022-08-12T19:08:37.102Z,0.68
2022-08-12T19:11:24.689Z,0.80
2022-08-12T19:14:14.717Z,0.60
2022-08-12T19:16:50.939Z,0.68
2022-08-12T19:19:20.425Z,0.95
2022-08-12T19:21:56.869Z,0.70
2022-08-12T19:24:45.575Z,0.90
2022-08-12T19:27:18.106Z,0.90
2022-08-12T19:30:05.950Z,0.57
2022-08-12T19:32:41.556Z,0.50
2022-08-12T19:38:07.106Z,0.85
2022-08-12T19:40:47.765Z,1.13
2022-08-12T19:43:25.699Z,1.20
2022-08-12T19:46:18.869Z,0.80
